Notice: Use of undefined constant NAME - assumed 'NAME' in /home/bismarckweather/public_html/wxwuhistory.php on line 72

Notice: Use of undefined constant NAME - assumed 'NAME' in /home/bismarckweather/public_html/wxwuhistory.php on line 72
^^
Station Historical Data
Daily Summary for August 9, 2018 Units:  English    Metric   Both
« Previous Day
Next Day »
Daily Weekly Monthly Yearly Custom
  High: Low: Average:
Temperature: 95.2 °F 61 °F 77.9 °F
Dew Point: 62.2 °F 50.3 °F 56.5 °F
Humidity: 82% 23% 52%
Wind Speed: 10mph 0mph 3.6mph
Wind Gust: 14mph - -
Wind- - South
Pressure: 29.93 in 29.85 in -
Precipitation: 0 in    
Historical Graphs
 
 
Tabular Data for August 9, 2018
Time Temperature Dew Point Pressure Wind Wind Speed Wind Gust Humidity Rainfall Rate (Hourly) solar Conditions
00:04 70.6 °F 55.6 °F 29.85 in ENE 4 mph 5 mph 59% 0 in 0.00 W/m2
00:09 70.8 °F 55.8 °F 29.85 in ENE 4 mph 5 mph 59% 0 in 0.00 W/m2
00:14 70.9 °F 55.9 °F 29.85 in ENE 4 mph 5 mph 59% 0 in 0.00 W/m2
00:19 70.7 °F 55.7 °F 29.86 in ENE 3 mph 5 mph 59% 0 in 0.00 W/m2
00:24 70.5 °F 55.5 °F 29.86 in East 3 mph 5 mph 59% 0 in 0.00 W/m2
00:29 70.2 °F 55.7 °F 29.86 in East 2 mph 5 mph 60% 0 in 0.00 W/m2
00:34 69.5 °F 55.5 °F 29.86 in East 3 mph 6 mph 61% 0 in 0.00 W/m2
00:39 69 °F 55 °F 29.86 in East 5 mph 6 mph 61% 0 in 0.00 W/m2
00:44 68.7 °F 55.2 °F 29.86 in East 6 mph 6 mph 62% 0 in 0.00 W/m2
00:49 68.5 °F 55.4 °F 29.86 in East 3 mph 6 mph 63% 0 in 0.00 W/m2
00:54 68.2 °F 55.6 °F 29.86 in ESE 4 mph 6 mph 64% 0 in 0.00 W/m2
00:59 67.8 °F 55.6 °F 29.87 in ESE 3 mph 5 mph 65% 0 in 0.00 W/m2
01:04 67.4 °F 55.2 °F 29.87 in ESE 4 mph 4 mph 65% 0 in 0.00 W/m2
01:09 67.3 °F 55.5 °F 29.87 in ESE 4 mph 4 mph 66% 0 in 0.00 W/m2
01:14 67.5 °F 55.3 °F 29.87 in ESE 4 mph 5 mph 65% 0 in 0.00 W/m2
01:19 67.9 °F 55.3 °F 29.87 in East 5 mph 5 mph 64% 0 in 0.00 W/m2
01:24 68.4 °F 55.7 °F 29.87 in East 3 mph 5 mph 64% 0 in 0.00 W/m2
01:29 68.6 °F 55.5 °F 29.87 in East 3 mph 5 mph 63% 0 in 0.00 W/m2
01:34 68.6 °F 55.5 °F 29.87 in East 1 mph 5 mph 63% 0 in 0.00 W/m2
01:39 68.2 °F 55.6 °F 29.87 in East 2 mph 3 mph 64% 0 in 0.00 W/m2
01:44 67.6 °F 55.4 °F 29.87 in Calm   3 mph 65% 0 in 0.00 W/m2
01:49 67.1 °F 55.4 °F 29.87 in East 2 mph 2 mph 66% 0 in 0.00 W/m2
01:54 66.8 °F 55.1 °F 29.87 in East 3 mph 3 mph 66% 0 in 0.00 W/m2
01:59 66.6 °F 55.3 °F 29.87 in East 3 mph 5 mph 67% 0 in 0.00 W/m2
02:04 67 °F 55.3 °F 29.87 in East 3 mph 5 mph 66% 0 in 0.00 W/m2
02:09 66.9 °F 55.2 °F 29.87 in East 2 mph 3 mph 66% 0 in 0.00 W/m2
02:14 66.6 °F 55.3 °F 29.87 in East 2 mph 3 mph 67% 0 in 0.00 W/m2
02:19 66.1 °F 55.2 °F 29.87 in Calm   3 mph 68% 0 in 0.00 W/m2
02:24 65.6 °F 55.2 °F 29.87 in Calm   2 mph 69% 0 in 0.00 W/m2
02:29 65.3 °F 54.9 °F 29.87 in Calm     69% 0 in 0.00 W/m2
02:34 65.1 °F 55.1 °F 29.87 in East 1 mph 1 mph 70% 0 in 0.00 W/m2
02:39 65.1 °F 55.1 °F 29.87 in East 1 mph 2 mph 70% 0 in 0.00 W/m2
02:44 65.4 °F 55.4 °F 29.87 in Calm   2 mph 70% 0 in 0.00 W/m2
02:49 65.9 °F 55.4 °F 29.87 in Calm   2 mph 69% 0 in 0.00 W/m2
02:54 66.4 °F 55.5 °F 29.87 in Calm   1 mph 68% 0 in 0.00 W/m2
02:59 66.7 °F 55.4 °F 29.87 in East 1 mph 2 mph 67% 0 in 0.00 W/m2
03:04 67 °F 55.3 °F 29.87 in East 1 mph 2 mph 66% 0 in 0.00 W/m2
03:09 67.2 °F 55.5 °F 29.87 in East 2 mph 3 mph 66% 0 in 0.00 W/m2
03:14 67.2 °F 55.5 °F 29.88 in East 3 mph 3 mph 66% 0 in 0.00 W/m2
03:19 67.1 °F 55.4 °F 29.88 in East 3 mph 3 mph 66% 0 in 0.00 W/m2
03:24 66.9 °F 55.6 °F 29.88 in East 2 mph 3 mph 67% 0 in 0.00 W/m2
03:29 66.7 °F 55.4 °F 29.88 in East 2 mph 3 mph 67% 0 in 0.00 W/m2
03:34 66.7 °F 55.4 °F 29.88 in East 2 mph 3 mph 67% 0 in 0.00 W/m2
03:39 66.7 °F 55.4 °F 29.88 in East 2 mph 3 mph 67% 0 in 0.00 W/m2
03:44 66.6 °F 55.3 °F 29.88 in East 3 mph 3 mph 67% 0 in 0.00 W/m2
03:49 66.5 °F 55.6 °F 29.88 in East 2 mph 3 mph 68% 0 in 0.00 W/m2
03:54 66.5 °F 55.6 °F 29.88 in East 3 mph 3 mph 68% 0 in 0.00 W/m2
03:59 66.4 °F 55.9 °F 29.88 in East 2 mph 3 mph 69% 0 in 0.00 W/m2
04:04 66.4 °F 55.9 °F 29.88 in East 2 mph 3 mph 69% 0 in 0.00 W/m2
04:09 66.4 °F 55.9 °F 29.88 in East 2 mph 3 mph 69% 0 in 0.00 W/m2
04:14 66.3 °F 55.8 °F 29.88 in East 2 mph 2 mph 69% 0 in 0.00 W/m2
04:19 66.1 °F 55.6 °F 29.87 in East 1 mph 2 mph 69% 0 in 0.00 W/m2
04:24 65.8 °F 55.7 °F 29.87 in East 1 mph 2 mph 70% 0 in 0.00 W/m2
04:29 65.7 °F 56 °F 29.87 in East 2 mph 2 mph 71% 0 in 0.00 W/m2
04:34 65.7 °F 56 °F 29.87 in East 2 mph 2 mph 71% 0 in 0.00 W/m2
04:39 65.7 °F 56 °F 29.87 in East 2 mph 2 mph 71% 0 in 0.00 W/m2
04:44 65.6 °F 55.9 °F 29.88 in East 3 mph 3 mph 71% 0 in 0.00 W/m2
04:49 65.2 °F 55.9 °F 29.88 in ESE 3 mph 3 mph 72% 0 in 0.00 W/m2
04:54 64.8 °F 55.6 °F 29.88 in SSE 2 mph 3 mph 72% 0 in 0.00 W/m2
04:59 64.7 °F 55.8 °F 29.88 in SSE 2 mph 3 mph 73% 0 in 0.00 W/m2
05:04 64.8 °F 55.9 °F 29.88 in SSE 2 mph 3 mph 73% 0 in 0.00 W/m2
05:09 64.7 °F 55.8 °F 29.88 in SSE 1 mph 3 mph 73% 0 in 0.00 W/m2
05:14 64.6 °F 55.7 °F 29.88 in SSE 2 mph 3 mph 73% 0 in 0.00 W/m2
05:19 64.4 °F 55.6 °F 29.88 in SSE 3 mph 3 mph 73% 0 in 0.00 W/m2
05:24 64.2 °F 55.4 °F 29.88 in SSE 1 mph 3 mph 73% 0 in 0.00 W/m2
05:29 63.9 °F 55.4 °F 29.89 in SSE 2 mph 3 mph 74% 0 in 0.00 W/m2
05:34 63.6 °F 55.2 °F 29.89 in SSE 2 mph 3 mph 74% 0 in 0.00 W/m2
05:39 63.4 °F 55.3 °F 29.89 in WNW 3 mph 3 mph 75% 0 in 0.00 W/m2
05:44 63.2 °F 55.5 °F 29.89 in WNW 2 mph 3 mph 76% 0 in 0.00 W/m2
05:49 62.8 °F 55.1 °F 29.89 in NW 2 mph 3 mph 76% 0 in 0.00 W/m2
05:54 62.6 °F 55.3 °F 29.89 in NW 2 mph 3 mph 77% 0 in 0.00 W/m2
05:59 62.5 °F 55.5 °F 29.89 in NW 2 mph 3 mph 78% 0 in 0.00 W/m2
06:04 62.5 °F 55.5 °F 29.89 in NW 1 mph 3 mph 78% 0 in 0.00 W/m2
06:09 62.5 °F 55.5 °F 29.89 in NW 1 mph 2 mph 78% 0 in 0.00 W/m2
06:14 62.4 °F 55.4 °F 29.89 in Calm   1 mph 78% 0 in 0.00 W/m2
06:19 62.3 °F 55.4 °F 29.89 in Calm   1 mph 78% 0 in 0.00 W/m2
06:24 62.1 °F 55.2 °F 29.90 in NW 1 mph 2 mph 78% 0 in 0.00 W/m2
06:29 61.9 °F 55.3 °F 29.90 in NW 1 mph 2 mph 79% 0 in 5.00 W/m2
06:34 61.5 °F 54.9 °F 29.90 in Calm   2 mph 79% 0 in 7.00 W/m2
06:39 61.2 °F 55 °F 29.90 in Calm   1 mph 80% 0 in 11.00 W/m2
06:44 61 °F 54.8 °F 29.90 in Calm     80% 0 in 12.00 W/m2
06:49 61.1 °F 55.2 °F 29.90 in Calm     81% 0 in 16.00 W/m2
06:54 61.4 °F 55.2 °F 29.90 in Calm     80% 0 in 19.00 W/m2
06:59 61.7 °F 55.5 °F 29.91 in Calm     80% 0 in 23.00 W/m2
07:04 61.9 °F 55.7 °F 29.91 in Calm     80% 0 in 26.00 W/m2
07:09 62.1 °F 55.5 °F 29.91 in Calm     79% 0 in 32.00 W/m2
07:14 62 °F 55.4 °F 29.91 in NW 1 mph 2 mph 79% 0 in 35.00 W/m2
07:19 62 °F 55.8 °F 29.91 in NW 1 mph 2 mph 80% 0 in 40.00 W/m2
07:24 62.2 °F 56 °F 29.91 in NW 2 mph 2 mph 80% 0 in 47.00 W/m2
07:29 62.1 °F 55.9 °F 29.92 in NW 2 mph 2 mph 80% 0 in 53.00 W/m2
07:34 62.1 °F 55.9 °F 29.91 in NW 2 mph 3 mph 80% 0 in 56.00 W/m2
07:39 62.2 °F 56 °F 29.92 in NW 3 mph 3 mph 80% 0 in 62.00 W/m2
07:44 62.3 °F 56 °F 29.91 in ESE 3 mph 3 mph 80% 0 in 67.00 W/m2
07:49 62.5 °F 56.6 °F 29.91 in ESE 2 mph 4 mph 81% 0 in 70.00 W/m2
07:54 62.7 °F 56.8 °F 29.92 in ESE 3 mph 4 mph 81% 0 in 76.00 W/m2
07:59 62.9 °F 57.3 °F 29.92 in ESE 2 mph 4 mph 82% 0 in 83.00 W/m2
08:04 63.3 °F 57.4 °F 29.92 in SE 3 mph 4 mph 81% 0 in 132.00 W/m2
08:09 63.8 °F 57.5 °F 29.92 in SE 3 mph 4 mph 80% 0 in 146.00 W/m2
08:14 64.3 °F 57.6 °F 29.92 in SE 2 mph 3 mph 79% 0 in 155.00 W/m2
08:19 64.9 °F 57.5 °F 29.92 in SE 3 mph 3 mph 77% 0 in 158.00 W/m2
08:24 65.4 °F 57.6 °F 29.92 in SE 1 mph 3 mph 76% 0 in 167.00 W/m2
08:29 65.9 °F 57.7 °F 29.92 in SE 2 mph 3 mph 75% 0 in 186.00 W/m2
08:34 66.4 °F 58.6 °F 29.92 in Calm   3 mph 76% 0 in 213.00 W/m2
08:39 67 °F 58.4 °F 29.92 in Calm   3 mph 74% 0 in 223.00 W/m2
08:44 67.8 °F 58.4 °F 29.92 in SE 1 mph 2 mph 72% 0 in 236.00 W/m2
08:49 68.4 °F 58.2 °F 29.92 in SE 1 mph 2 mph 70% 0 in 251.00 W/m2
08:54 69 °F 58.8 °F 29.93 in SE 2 mph 2 mph 70% 0 in 265.00 W/m2
08:59 69.5 °F 58.5 °F 29.93 in Calm   2 mph 68% 0 in 281.00 W/m2
09:04 70.3 °F 58.8 °F 29.93 in SE 1 mph 2 mph 67% 0 in 294.00 W/m2
09:09 70.8 °F 58.9 °F 29.93 in SE 1 mph 2 mph 66% 0 in 311.00 W/m2
09:14 71.3 °F 59.4 °F 29.93 in SE 2 mph 2 mph 66% 0 in 318.00 W/m2
09:19 71.6 °F 59.6 °F 29.93 in SE 3 mph 3 mph 66% 0 in 334.00 W/m2
09:24 71.9 °F 59.9 °F 29.93 in SE 1 mph 3 mph 66% 0 in 353.00 W/m2
09:29 72.2 °F 59.8 °F 29.93 in SE 1 mph 4 mph 65% 0 in 369.00 W/m2
09:34 72.5 °F 60.1 °F 29.93 in SSE 2 mph 4 mph 65% 0 in 381.00 W/m2
09:39 73.1 °F 60.6 °F 29.93 in Calm   3 mph 65% 0 in 392.00 W/m2
09:44 73.7 °F 61.2 °F 29.93 in South 4 mph 4 mph 65% 0 in 406.00 W/m2
09:49 74.2 °F 60.3 °F 29.93 in SSW 1 mph 4 mph 62% 0 in 406.00 W/m2
09:54 74.5 °F 61.5 °F 29.93 in SSW 2 mph 4 mph 64% 0 in 436.00 W/m2
09:59 75.2 °F 62.2 °F 29.93 in Calm   4 mph 64% 0 in 455.00 W/m2
10:04 76 °F 61.1 °F 29.93 in SW 3 mph 4 mph 60% 0 in 473.00 W/m2
10:09 76.3 °F 60.4 °F 29.93 in WSW 1 mph 5 mph 58% 0 in 494.00 W/m2
10:14 76.4 °F 58.5 °F 29.93 in WSW 3 mph 6 mph 54% 0 in 510.00 W/m2
10:19 76.8 °F 58.9 °F 29.93 in WSW 4 mph 6 mph 54% 0 in 519.00 W/m2
10:24 77.2 °F 58.7 °F 29.93 in SW 3 mph 7 mph 53% 0 in 519.00 W/m2
10:29 77.5 °F 58.5 °F 29.93 in WSW 4 mph 7 mph 52% 0 in 529.00 W/m2
10:34 77.9 °F 57.2 °F 29.92 in SW 5 mph 6 mph 49% 0 in 540.00 W/m2
10:39 78.1 °F 57.9 °F 29.93 in WSW 4 mph 7 mph 50% 0 in 555.00 W/m2
10:44 78.3 °F 58.1 °F 29.93 in SW 6 mph 7 mph 50% 0 in 564.00 W/m2
10:49 78.3 °F 57 °F 29.93 in SW 2 mph 7 mph 48% 0 in 568.00 W/m2
10:54 78.8 °F 58 °F 29.93 in WSW 4 mph 7 mph 49% 0 in 589.00 W/m2
10:59 79.4 °F 59.1 °F 29.93 in SSW 2 mph 7 mph 50% 0 in 359.00 W/m2
11:04 79.7 °F 58.3 °F 29.93 in WSW 5 mph 6 mph 48% 0 in 587.00 W/m2
11:09 79.7 °F 58.3 °F 29.93 in WSW 5 mph 8 mph 48% 0 in 587.00 W/m2
11:14 79.9 °F 57.9 °F 29.93 in SW 4 mph 8 mph 47% 0 in 555.00 W/m2
11:19 80 °F 58.5 °F 29.93 in West 2 mph 8 mph 48% 0 in 545.00 W/m2
11:24 80.5 °F 59 °F 29.92 in West 2 mph 6 mph 48% 0 in 541.00 W/m2
11:29 80.8 °F 57.5 °F 29.93 in West 2 mph 7 mph 45% 0 in 568.00 W/m2
11:34 81.1 °F 58.4 °F 29.93 in WNW 3 mph 7 mph 46% 0 in 582.00 W/m2
11:39 81.6 °F 58.8 °F 29.93 in West 4 mph 6 mph 46% 0 in 626.00 W/m2
11:44 81.8 °F 59 °F 29.93 in West 2 mph 6 mph 46% 0 in 664.00 W/m2
11:49 82.2 °F 58.7 °F 29.93 in West 2 mph 7 mph 45% 0 in 671.00 W/m2
11:54 82.6 °F 59.7 °F 29.93 in WSW 6 mph 8 mph 46% 0 in 694.00 W/m2
11:59 82.8 °F 58.7 °F 29.93 in SW 3 mph 8 mph 44% 0 in 710.00 W/m2
12:04 83.5 °F 59.9 °F 29.93 in WSW 5 mph 8 mph 45% 0 in 712.00 W/m2
12:09 83.8 °F 59.6 °F 29.92 in SW 6 mph 8 mph 44% 0 in 726.00 W/m2
12:14 84.4 °F 60.1 °F 29.92 in SW 4 mph 6 mph 44% 0 in 740.00 W/m2
12:19 85 °F 60 °F 29.92 in WSW 3 mph 6 mph 43% 0 in 733.00 W/m2
12:24 85.3 °F 57.5 °F 29.92 in WSW 4 mph 7 mph 39% 0 in 742.00 W/m2
12:29 85.6 °F 57.1 °F 29.92 in West 4 mph 7 mph 38% 0 in 745.00 W/m2
12:34 86 °F 58.9 °F 29.92 in SW 3 mph 7 mph 40% 0 in 761.00 W/m2
12:39 86.3 °F 57.7 °F 29.92 in West 8 mph 9 mph 38% 0 in 768.00 W/m2
12:44 86.6 °F 55.7 °F 29.92 in West 3 mph 9 mph 35% 0 in 759.00 W/m2
12:49 87.2 °F 54.6 °F 29.92 in WSW 6 mph 10 mph 33% 0 in 766.00 W/m2
12:54 87.1 °F 52.8 °F 29.92 in SW 5 mph 10 mph 31% 0 in 793.00 W/m2
12:59 87.4 °F 57.2 °F 29.92 in SSW 5 mph 10 mph 36% 0 in 816.00 W/m2
13:04 87.8 °F 56.7 °F 29.92 in WSW 4 mph 11 mph 35% 0 in 837.00 W/m2
13:09 87.8 °F 56.7 °F 29.92 in SW 4 mph 11 mph 35% 0 in 888.00 W/m2
13:14 87.7 °F 57.4 °F 29.92 in SW 2 mph 10 mph 36% 0 in 364.00 W/m2
13:19 88 °F 58.5 °F 29.92 in West 6 mph 8 mph 37% 0 in 462.00 W/m2
13:24 88.4 °F 56.5 °F 29.92 in SSW 3 mph 8 mph 34% 0 in 450.00 W/m2
13:29 88.4 °F 55.6 °F 29.91 in Calm   10 mph 33% 0 in 434.00 W/m2
13:34 88.5 °F 55.7 °F 29.91 in West 8 mph 10 mph 33% 0 in 849.00 W/m2
13:39 89.1 °F 55.4 °F 29.91 in West 4 mph 10 mph 32% 0 in 830.00 W/m2
13:44 89.2 °F 55.5 °F 29.91 in WNW 6 mph 10 mph 32% 0 in 752.00 W/m2
13:49 89.4 °F 56.5 °F 29.91 in West 2 mph 6 mph 33% 0 in 645.00 W/m2
13:54 89.8 °F 57.7 °F 29.91 in NNW 5 mph 7 mph 34% 0 in 714.00 W/m2
13:59 90.1 °F 54.5 °F 29.91 in WSW 4 mph 9 mph 30% 0 in 793.00 W/m2
14:04 90.2 °F 55.5 °F 29.91 in NW 3 mph 11 mph 31% 0 in 814.00 W/m2
14:09 90.7 °F 55.9 °F 29.91 in Calm   11 mph 31% 0 in 826.00 W/m2
14:14 91.1 °F 56.3 °F 29.91 in NW 6 mph 10 mph 31% 0 in 731.00 W/m2
14:19 90.7 °F 56.8 °F 29.90 in West 5 mph 10 mph 32% 0 in 719.00 W/m2
14:24 90.8 °F 55.1 °F 29.90 in WNW 8 mph 12 mph 30% 0 in 700.00 W/m2
14:29 90.9 °F 57 °F 29.90 in NNW 5 mph 12 mph 32% 0 in 724.00 W/m2
14:34 91.5 °F 57.5 °F 29.90 in WSW 6 mph 9 mph 32% 0 in 766.00 W/m2
14:39 91.2 °F 55.4 °F 29.90 in NW 3 mph 8 mph 30% 0 in 780.00 W/m2
14:44 91.2 °F 56.3 °F 29.90 in North 2 mph 7 mph 31% 0 in 763.00 W/m2
14:49 91.9 °F 57.8 °F 29.89 in ENE 2 mph 7 mph 32% 0 in 768.00 W/m2
14:54 92.5 °F 56.6 °F 29.89 in WSW 5 mph 7 mph 30% 0 in 765.00 W/m2
14:59 92.6 °F 57.6 °F 29.89 in NNW 4 mph 8 mph 31% 0 in 768.00 W/m2
15:04 92.4 °F 55.5 °F 29.89 in NE 2 mph 8 mph 29% 0 in 775.00 W/m2
15:09 92.7 °F 57.6 °F 29.89 in West 4 mph 6 mph 31% 0 in 777.00 W/m2
15:14 92.9 °F 56 °F 29.89 in SW 4 mph 8 mph 29% 0 in 758.00 W/m2
15:19 92.9 °F 55 °F 29.89 in West 5 mph 9 mph 28% 0 in 759.00 W/m2
15:24 92.7 °F 54.8 °F 29.89 in WSW 8 mph 11 mph 28% 0 in 703.00 W/m2
15:29 92.5 °F 54.7 °F 29.89 in North 4 mph 11 mph 28% 0 in 726.00 W/m2
15:34 93.4 °F 55.4 °F 29.89 in NNE 7 mph 8 mph 28% 0 in 809.00 W/m2
15:39 94.1 °F 55 °F 29.89 in North 5 mph 8 mph 27% 0 in 763.00 W/m2
15:44 94.3 °F 56.2 °F 29.89 in SW 5 mph 8 mph 28% 0 in 772.00 W/m2
15:49 93.8 °F 53.7 °F 29.89 in NW 7 mph 14 mph 26% 0 in 742.00 W/m2
15:54 93.2 °F 54.3 °F 29.89 in NW 8 mph 14 mph 27% 0 in 715.00 W/m2
15:59 92.9 °F 53 °F 29.89 in NNE 6 mph 11 mph 26% 0 in 698.00 W/m2
16:04 93.1 °F 53.1 °F 29.89 in WNW 5 mph 12 mph 26% 0 in 650.00 W/m2
16:09 92.8 °F 52.9 °F 29.89 in NNW 8 mph 12 mph 26% 0 in 612.00 W/m2
16:14 93.1 °F 51 °F 29.88 in NNW 6 mph 11 mph 24% 0 in 348.00 W/m2
16:19 92.7 °F 51.7 °F 29.88 in NW 7 mph 11 mph 25% 0 in 610.00 W/m2
16:24 92.5 °F 52.6 °F 29.88 in NNW 8 mph 13 mph 26% 0 in 640.00 W/m2
16:29 93.1 °F 52.1 °F 29.88 in WNW 6 mph 13 mph 25% 0 in 640.00 W/m2
16:34 93.1 °F 51 °F 29.89 in West 5 mph 11 mph 24% 0 in 605.00 W/m2
16:37 93.1 °F 52.1 °F 29.89 in NW 7 mph 11 mph 25% 0 in 599.00 W/m2
16:44 92.9 °F 50.8 °F 29.89 in NW 9 mph 10 mph 24% 0 in 587.00 W/m2
16:49 92.9 °F 50.8 °F 29.89 in NW 5 mph 10 mph 24% 0 in 578.00 W/m2
16:54 93 °F 52 °F 29.88 in WSW 4 mph 9 mph 25% 0 in 571.00 W/m2
16:59 93.1 °F 53.1 °F 29.88 in WNW 1 mph 6 mph 26% 0 in 559.00 W/m2
17:04 93.4 °F 51.2 °F 29.88 in NW 2 mph 11 mph 24% 0 in 547.00 W/m2
17:09 93.8 °F 52.7 °F 29.88 in WNW 3 mph 11 mph 25% 0 in 531.00 W/m2
17:14 93.7 °F 50.3 °F 29.88 in WNW 9 mph 11 mph 23% 0 in 526.00 W/m2
17:19 93.2 °F 51 °F 29.88 in NNW 6 mph 12 mph 24% 0 in 510.00 W/m2
17:24 93.8 °F 51.5 °F 29.88 in NNE 3 mph 12 mph 24% 0 in 499.00 W/m2
17:29 94.5 °F 52.1 °F 29.88 in NNE 8 mph 10 mph 24% 0 in 485.00 W/m2
17:34 95 °F 54.7 °F 29.88 in NNE 8 mph 11 mph 26% 0 in 471.00 W/m2
17:39 95.2 °F 53.8 °F 29.88 in North 8 mph 11 mph 25% 0 in 455.00 W/m2
17:44 95.2 °F 52.7 °F 29.88 in NNW 6 mph 9 mph 24% 0 in 441.00 W/m2
17:49 94.8 °F 51.2 °F 29.88 in NNW 4 mph 9 mph 23% 0 in 429.00 W/m2
17:54 94 °F 52.8 °F 29.87 in WNW 5 mph 9 mph 25% 0 in 417.00 W/m2
17:59 93.7 °F 51.5 °F 29.87 in WSW 2 mph 6 mph 24% 0 in 403.00 W/m2
18:04 93.9 °F 52.7 °F 29.87 in WNW 2 mph 6 mph 25% 0 in 387.00 W/m2
18:09 93.9 °F 53.8 °F 29.87 in North 2 mph 6 mph 26% 0 in 373.00 W/m2
18:14 94.3 °F 54.1 °F 29.87 in NNE 2 mph 6 mph 26% 0 in 359.00 W/m2
18:19 94.5 °F 53.2 °F 29.87 in NNW 6 mph 6 mph 25% 0 in 348.00 W/m2
18:24 94.3 °F 53.1 °F 29.87 in West 6 mph 7 mph 25% 0 in 330.00 W/m2
18:29 93.4 °F 51.2 °F 29.87 in WNW 2 mph 7 mph 24% 0 in 315.00 W/m2
18:34 93.2 °F 52.1 °F 29.87 in NW 3 mph 6 mph 25% 0 in 301.00 W/m2
18:39 92.9 °F 53 °F 29.87 in WNW 2 mph 6 mph 26% 0 in 287.00 W/m2
18:44 93 °F 54.1 °F 29.87 in NNW 2 mph 5 mph 27% 0 in 271.00 W/m2
18:49 93.4 °F 52.3 °F 29.87 in NNW 2 mph 3 mph 25% 0 in 257.00 W/m2
18:54 93.8 °F 53.7 °F 29.87 in NNW 3 mph 5 mph 26% 0 in 246.00 W/m2
18:59 93.6 °F 55.6 °F 29.87 in North 5 mph 5 mph 28% 0 in 234.00 W/m2
19:04 93.7 °F 53.6 °F 29.87 in Calm   5 mph 26% 0 in 220.00 W/m2
19:09 94 °F 53.9 °F 29.87 in NNE 1 mph 5 mph 26% 0 in 207.00 W/m2
19:14 94.5 °F 56.4 °F 29.87 in NNE 3 mph 4 mph 28% 0 in 193.00 W/m2
19:19 94.3 °F 55.2 °F 29.87 in NE 1 mph 4 mph 27% 0 in 179.00 W/m2
19:24 93.6 °F 55.6 °F 29.87 in NE 3 mph 4 mph 28% 0 in 163.00 W/m2
19:29 92.9 °F 56.9 °F 29.87 in NE 3 mph 4 mph 30% 0 in 153.00 W/m2
19:34 92.4 °F 56.5 °F 29.86 in NE 3 mph 4 mph 30% 0 in 139.00 W/m2
19:39 92 °F 57 °F 29.86 in ENE 2 mph 4 mph 31% 0 in 125.00 W/m2
19:44 91.3 °F 57.3 °F 29.86 in ENE 7 mph 7 mph 32% 0 in 113.00 W/m2
19:49 90.8 °F 56.9 °F 29.86 in ENE 3 mph 8 mph 32% 0 in 100.00 W/m2
19:54 90.3 °F 56.4 °F 29.86 in ENE 5 mph 8 mph 32% 0 in 90.00 W/m2
19:59 89.7 °F 57.6 °F 29.86 in ENE 4 mph 8 mph 34% 0 in 77.00 W/m2
20:04 89.1 °F 57.1 °F 29.87 in ENE 2 mph 7 mph 34% 0 in 70.00 W/m2
20:09 88.7 °F 57.5 °F 29.86 in ENE 3 mph 7 mph 35% 0 in 62.00 W/m2
20:14 88.1 °F 57 °F 29.86 in East 7 mph 8 mph 35% 0 in 53.00 W/m2
20:19 87.6 °F 57.3 °F 29.87 in ENE 4 mph 8 mph 36% 0 in 46.00 W/m2
20:24 86.8 °F 57.4 °F 29.87 in ENE 4 mph 9 mph 37% 0 in 39.00 W/m2
20:29 86.1 °F 58.2 °F 29.86 in East 6 mph 9 mph 39% 0 in 32.00 W/m2
20:34 85.6 °F 57.8 °F 29.86 in ENE 4 mph 9 mph 39% 0 in 26.00 W/m2
20:39 85 °F 58 °F 29.86 in East 10 mph 10 mph 40% 0 in 23.00 W/m2
20:44 84.4 °F 58.1 °F 29.87 in ENE 7 mph 10 mph 41% 0 in 18.00 W/m2
20:49 83.8 °F 58.3 °F 29.86 in ENE 7 mph 10 mph 42% 0 in 12.00 W/m2
20:54 83.3 °F 58.5 °F 29.86 in ENE 7 mph 10 mph 43% 0 in 9.00 W/m2
20:59 82.7 °F 59.2 °F 29.87 in ENE 8 mph 10 mph 45% 0 in 5.00 W/m2
21:04 82.3 °F 59.4 °F 29.86 in ENE 10 mph 11 mph 46% 0 in 0.00 W/m2
21:09 82 °F 59.2 °F 29.87 in East 9 mph 11 mph 46% 0 in 0.00 W/m2
21:14 81.9 °F 59.1 °F 29.87 in East 8 mph 11 mph 46% 0 in 0.00 W/m2
21:19 81.6 °F 59.4 °F 29.87 in East 8 mph 13 mph 47% 0 in 0.00 W/m2
21:24 81 °F 60 °F 29.88 in East 5 mph 13 mph 49% 0 in 0.00 W/m2
21:29 80 °F 59.7 °F 29.88 in ESE 4 mph 9 mph 50% 0 in 0.00 W/m2
21:34 78.9 °F 60.3 °F 29.88 in East 6 mph 10 mph 53% 0 in 0.00 W/m2
21:39 78 °F 60.5 °F 29.88 in East 6 mph 10 mph 55% 0 in 0.00 W/m2
21:44 77.6 °F 60.7 °F 29.88 in East 7 mph 9 mph 56% 0 in 0.00 W/m2
21:49 77.5 °F 60.6 °F 29.88 in East 7 mph 10 mph 56% 0 in 0.00 W/m2
21:54 77.7 °F 60.2 °F 29.88 in East 7 mph 11 mph 55% 0 in 0.00 W/m2
21:59 77.7 °F 60.2 °F 29.88 in East 7 mph 11 mph 55% 0 in 0.00 W/m2
22:04 77.8 °F 59.8 °F 29.88 in East 6 mph 11 mph 54% 0 in 0.00 W/m2
22:09 77.3 °F 60.4 °F 29.89 in East 6 mph 11 mph 56% 0 in 0.00 W/m2
22:14 76.7 °F 60.3 °F 29.88 in ENE 7 mph 9 mph 57% 0 in 0.00 W/m2
22:19 76.5 °F 60.1 °F 29.89 in ENE 9 mph 9 mph 57% 0 in 0.00 W/m2
22:24 76.6 °F 59.7 °F 29.88 in ENE 10 mph 11 mph 56% 0 in 0.00 W/m2
22:29 77 °F 59.6 °F 29.89 in ENE 4 mph 11 mph 55% 0 in 0.00 W/m2
22:34 77 °F 60.1 °F 29.89 in East 7 mph 11 mph 56% 0 in 0.00 W/m2
22:39 76.3 °F 59.9 °F 29.89 in East 5 mph 10 mph 57% 0 in 0.00 W/m2
22:44 75.7 °F 60.4 °F 29.89 in East 7 mph 8 mph 59% 0 in 0.00 W/m2
22:49 75 °F 60.2 °F 29.89 in ESE 5 mph 9 mph 60% 0 in 0.00 W/m2
22:54 74.5 °F 59.7 °F 29.89 in East 6 mph 9 mph 60% 0 in 0.00 W/m2
22:59 74.3 °F 60 °F 29.89 in East 7 mph 8 mph 61% 0 in 0.00 W/m2
23:04 73.9 °F 59.6 °F 29.89 in ESE 5 mph 8 mph 61% 0 in 0.00 W/m2
23:09 73.8 °F 59.5 °F 29.89 in ESE 5 mph 8 mph 61% 0 in 0.00 W/m2
23:14 73.7 °F 59.4 °F 29.89 in East 5 mph 9 mph 61% 0 in 0.00 W/m2
23:19 73.6 °F 59.3 °F 29.89 in East 6 mph 9 mph 61% 0 in 0.00 W/m2
23:24 73.6 °F 59.3 °F 29.89 in East 7 mph 9 mph 61% 0 in 0.00 W/m2
23:29 73.6 °F 59.3 °F 29.89 in ESE 4 mph 9 mph 61% 0 in 0.00 W/m2
23:34 73.5 °F 59.2 °F 29.89 in East 6 mph 8 mph 61% 0 in 0.00 W/m2
23:39 73.4 °F 59.1 °F 29.89 in East 7 mph 8 mph 61% 0 in 0.00 W/m2
23:44 73.2 °F 59.4 °F 29.89 in East 7 mph 8 mph 62% 0 in 0.00 W/m2
23:49 73 °F 59.7 °F 29.89 in ESE 5 mph 8 mph 63% 0 in 0.00 W/m2
23:54 72.9 °F 59.6 °F 29.89 in ESE 7 mph 8 mph 63% 0 in 0.00 W/m2
23:59 72.9 °F 59.6 °F 29.89 in ESE 4 mph 8 mph 63% 0 in 0.00 W/m2
Bismarck, North Dakota, USA
Compliments of Weather Underground - 4 mb